sensor_id;sensor_type;location;lat;lon;timestamp;P1;durP1;ratioP1;P2;durP2;ratioP2
50631;SDS011;49583;45.590;-122.498;2023-11-25T00:00:44;2.40;;;1.80;;
50631;SDS011;49583;45.590;-122.498;2023-11-25T00:03:13;2.50;;;1.90;;
50631;SDS011;49583;45.590;-122.498;2023-11-25T00:05:26;2.40;;;1.40;;
50631;SDS011;49583;45.590;-122.498;2023-11-25T00:07:39;2.80;;;1.50;;
50631;SDS011;49583;45.590;-122.498;2023-11-25T00:09:52;2.20;;;1.60;;
50631;SDS011;49583;45.590;-122.498;2023-11-25T00:12:06;1.70;;;1.40;;
50631;SDS011;49583;45.590;-122.498;2023-11-25T00:14:19;1.60;;;1.40;;
50631;SDS011;49583;45.590;-122.498;2023-11-25T00:16:32;3.10;;;1.40;;
50631;SDS011;49583;45.590;-122.498;2023-11-25T00:18:45;2.90;;;1.80;;
50631;SDS011;49583;45.590;-122.498;2023-11-25T00:20:58;3.40;;;1.80;;
50631;SDS011;49583;45.590;-122.498;2023-11-25T00:23:11;4.20;;;1.60;;
50631;SDS011;49583;45.590;-122.498;2023-11-25T00:25:25;1.80;;;1.50;;
50631;SDS011;49583;45.590;-122.498;2023-11-25T00:27:38;2.10;;;1.50;;
50631;SDS011;49583;45.590;-122.498;2023-11-25T00:29:53;3.20;;;1.80;;
50631;SDS011;49583;45.590;-122.498;2023-11-25T00:32:06;4.90;;;1.50;;
50631;SDS011;49583;45.590;-122.498;2023-11-25T00:34:23;3.40;;;2.20;;
50631;SDS011;49583;45.590;-122.498;2023-11-25T00:36:37;6.00;;;1.90;;
50631;SDS011;49583;45.590;-122.498;2023-11-25T00:38:54;4.80;;;2.10;;
50631;SDS011;49583;45.590;-122.498;2023-11-25T00:41:07;4.20;;;1.90;;
50631;SDS011;49583;45.590;-122.498;2023-11-25T00:43:21;4.70;;;2.20;;
50631;SDS011;49583;45.590;-122.498;2023-11-25T00:45:34;3.30;;;2.30;;
50631;SDS011;49583;45.590;-122.498;2023-11-25T00:47:46;3.50;;;2.60;;
50631;SDS011;49583;45.590;-122.498;2023-11-25T00:50:00;4.50;;;2.40;;
50631;SDS011;49583;45.590;-122.498;2023-11-25T00:52:17;5.80;;;2.80;;
50631;SDS011;49583;45.590;-122.498;2023-11-25T00:54:30;2.80;;;2.10;;
50631;SDS011;49583;45.590;-122.498;2023-11-25T00:56:44;3.80;;;2.00;;
50631;SDS011;49583;45.590;-122.498;2023-11-25T00:58:57;3.90;;;2.30;;
50631;SDS011;49583;45.590;-122.498;2023-11-25T01:01:11;2.80;;;2.10;;
50631;SDS011;49583;45.590;-122.498;2023-11-25T01:03:28;2.50;;;1.80;;
50631;SDS011;49583;45.590;-122.498;2023-11-25T01:05:41;3.90;;;2.10;;
50631;SDS011;49583;45.590;-122.498;2023-11-25T01:07:54;3.40;;;1.90;;
50631;SDS011;49583;45.590;-122.498;2023-11-25T01:10:08;2.30;;;2.00;;
50631;SDS011;49583;45.590;-122.498;2023-11-25T01:12:21;2.80;;;1.90;;
50631;SDS011;49583;45.590;-122.498;2023-11-25T01:14:38;2.40;;;1.80;;
50631;SDS011;49583;45.590;-122.498;2023-11-25T01:16:51;1.70;;;1.40;;
50631;SDS011;49583;45.590;-122.498;2023-11-25T01:19:08;2.80;;;2.00;;
50631;SDS011;49583;45.590;-122.498;2023-11-25T01:21:21;2.10;;;1.70;;
50631;SDS011;49583;45.590;-122.498;2023-11-25T01:23:34;5.70;;;2.00;;
50631;SDS011;49583;45.590;-122.498;2023-11-25T01:25:47;2.50;;;1.70;;
50631;SDS011;49583;45.590;-122.498;2023-11-25T01:28:01;3.10;;;2.20;;
50631;SDS011;49583;45.590;-122.498;2023-11-25T01:30:14;3.00;;;1.80;;
50631;SDS011;49583;45.590;-122.498;2023-11-25T01:32:27;4.40;;;2.20;;
50631;SDS011;49583;45.590;-122.498;2023-11-25T01:34:41;4.90;;;2.60;;
50631;SDS011;49583;45.590;-122.498;2023-11-25T01:36:54;2.80;;;2.40;;
50631;SDS011;49583;45.590;-122.498;2023-11-25T01:39:07;4.70;;;2.50;;
50631;SDS011;49583;45.590;-122.498;2023-11-25T01:41:21;3.50;;;3.10;;
50631;SDS011;49583;45.590;-122.498;2023-11-25T01:43:34;3.40;;;2.60;;
50631;SDS011;49583;45.590;-122.498;2023-11-25T01:45:47;4.00;;;3.20;;
50631;SDS011;49583;45.590;-122.498;2023-11-25T01:48:02;9.20;;;3.50;;
50631;SDS011;49583;45.590;-122.498;2023-11-25T01:50:19;4.40;;;3.40;;
50631;SDS011;49583;45.590;-122.498;2023-11-25T01:52:33;6.40;;;3.80;;
50631;SDS011;49583;45.590;-122.498;2023-11-25T01:54:47;10.50;;;3.80;;
50631;SDS011;49583;45.590;-122.498;2023-11-25T01:57:00;5.80;;;3.30;;
50631;SDS011;49583;45.590;-122.498;2023-11-25T01:59:14;3.20;;;2.80;;
50631;SDS011;49583;45.590;-122.498;2023-11-25T02:01:28;5.20;;;3.60;;
50631;SDS011;49583;45.590;-122.498;2023-11-25T02:03:41;5.10;;;4.10;;
50631;SDS011;49583;45.590;-122.498;2023-11-25T02:05:54;4.10;;;3.50;;
50631;SDS011;49583;45.590;-122.498;2023-11-25T02:08:07;5.30;;;3.70;;
50631;SDS011;49583;45.590;-122.498;2023-11-25T02:10:20;9.10;;;3.60;;
50631;SDS011;49583;45.590;-122.498;2023-11-25T02:12:33;7.30;;;3.60;;
50631;SDS011;49583;45.590;-122.498;2023-11-25T02:14:50;4.30;;;3.70;;
50631;SDS011;49583;45.590;-122.498;2023-11-25T02:17:03;6.50;;;4.10;;
50631;SDS011;49583;45.590;-122.498;2023-11-25T02:19:18;5.40;;;4.20;;
50631;SDS011;49583;45.590;-122.498;2023-11-25T02:21:31;6.50;;;4.60;;
50631;SDS011;49583;45.590;-122.498;2023-11-25T02:23:49;6.80;;;4.50;;
50631;SDS011;49583;45.590;-122.498;2023-11-25T02:26:03;6.00;;;4.50;;
50631;SDS011;49583;45.590;-122.498;2023-11-25T02:28:16;7.20;;;5.30;;
50631;SDS011;49583;45.590;-122.498;2023-11-25T02:30:30;6.60;;;4.30;;
50631;SDS011;49583;45.590;-122.498;2023-11-25T02:32:42;6.30;;;3.50;;
50631;SDS011;49583;45.590;-122.498;2023-11-25T02:34:57;5.40;;;4.20;;
50631;SDS011;49583;45.590;-122.498;2023-11-25T02:37:10;5.30;;;3.60;;
50631;SDS011;49583;45.590;-122.498;2023-11-25T02:39:23;4.20;;;3.30;;
50631;SDS011;49583;45.590;-122.498;2023-11-25T02:41:48;4.10;;;3.30;;
50631;SDS011;49583;45.590;-122.498;2023-11-25T02:44:02;5.70;;;3.50;;
50631;SDS011;49583;45.590;-122.498;2023-11-25T02:46:17;5.00;;;3.50;;
50631;SDS011;49583;45.590;-122.498;2023-11-25T02:48:31;5.50;;;4.00;;
50631;SDS011;49583;45.590;-122.498;2023-11-25T02:50:44;6.00;;;3.50;;
50631;SDS011;49583;45.590;-122.498;2023-11-25T02:52:58;4.30;;;3.40;;
50631;SDS011;49583;45.590;-122.498;2023-11-25T02:55:12;8.50;;;4.60;;
50631;SDS011;49583;45.590;-122.498;2023-11-25T02:57:25;6.30;;;4.60;;
50631;SDS011;49583;45.590;-122.498;2023-11-25T02:59:39;6.30;;;4.70;;
50631;SDS011;49583;45.590;-122.498;2023-11-25T03:01:52;8.20;;;5.00;;
50631;SDS011;49583;45.590;-122.498;2023-11-25T03:04:13;12.70;;;5.30;;
50631;SDS011;49583;45.590;-122.498;2023-11-25T03:06:27;5.20;;;4.00;;
50631;SDS011;49583;45.590;-122.498;2023-11-25T03:08:40;7.50;;;4.30;;
50631;SDS011;49583;45.590;-122.498;2023-11-25T03:10:53;5.00;;;3.20;;
50631;SDS011;49583;45.590;-122.498;2023-11-25T03:13:06;4.60;;;3.40;;
50631;SDS011;49583;45.590;-122.498;2023-11-25T03:15:19;5.50;;;3.60;;
50631;SDS011;49583;45.590;-122.498;2023-11-25T03:17:32;13.30;;;6.70;;
50631;SDS011;49583;45.590;-122.498;2023-11-25T03:19:44;21.20;;;10.10;;
50631;SDS011;49583;45.590;-122.498;2023-11-25T03:21:57;12.70;;;8.50;;
50631;SDS011;49583;45.590;-122.498;2023-11-25T03:24:10;7.90;;;5.00;;
50631;SDS011;49583;45.590;-122.498;2023-11-25T03:26:24;8.50;;;4.00;;
50631;SDS011;49583;45.590;-122.498;2023-11-25T03:28:41;5.60;;;3.90;;
50631;SDS011;49583;45.590;-122.498;2023-11-25T03:30:56;4.80;;;3.60;;
50631;SDS011;49583;45.590;-122.498;2023-11-25T03:33:10;5.30;;;3.90;;
50631;SDS011;49583;45.590;-122.498;2023-11-25T03:35:23;6.00;;;3.90;;
50631;SDS011;49583;45.590;-122.498;2023-11-25T03:37:37;4.90;;;4.10;;
50631;SDS011;49583;45.590;-122.498;2023-11-25T03:39:50;4.90;;;3.90;;
50631;SDS011;49583;45.590;-122.498;2023-11-25T03:42:03;6.20;;;3.70;;
50631;SDS011;49583;45.590;-122.498;2023-11-25T03:44:16;5.70;;;3.60;;
50631;SDS011;49583;45.590;-122.498;2023-11-25T03:46:29;4.10;;;3.30;;
50631;SDS011;49583;45.590;-122.498;2023-11-25T03:48:43;6.00;;;3.50;;
50631;SDS011;49583;45.590;-122.498;2023-11-25T03:50:57;4.50;;;4.00;;
50631;SDS011;49583;45.590;-122.498;2023-11-25T03:53:10;6.00;;;4.40;;
50631;SDS011;49583;45.590;-122.498;2023-11-25T03:55:23;4.10;;;3.70;;
50631;SDS011;49583;45.590;-122.498;2023-11-25T03:57:36;5.70;;;4.60;;
50631;SDS011;49583;45.590;-122.498;2023-11-25T03:59:49;5.80;;;4.50;;
50631;SDS011;49583;45.590;-122.498;2023-11-25T04:02:02;4.90;;;3.90;;
50631;SDS011;49583;45.590;-122.498;2023-11-25T04:04:15;5.70;;;4.00;;
50631;SDS011;49583;45.590;-122.498;2023-11-25T04:06:28;5.30;;;4.70;;
50631;SDS011;49583;45.590;-122.498;2023-11-25T04:08:44;7.20;;;5.00;;
50631;SDS011;49583;45.590;-122.498;2023-11-25T04:10:57;6.90;;;5.10;;
50631;SDS011;49583;45.590;-122.498;2023-11-25T04:13:14;5.50;;;4.40;;
50631;SDS011;49583;45.590;-122.498;2023-11-25T04:15:29;10.30;;;4.40;;
50631;SDS011;49583;45.590;-122.498;2023-11-25T04:17:45;4.90;;;4.30;;
50631;SDS011;49583;45.590;-122.498;2023-11-25T04:19:59;6.90;;;4.70;;
50631;SDS011;49583;45.590;-122.498;2023-11-25T04:22:21;4.90;;;4.30;;
50631;SDS011;49583;45.590;-122.498;2023-11-25T04:24:34;5.70;;;4.30;;
50631;SDS011;49583;45.590;-122.498;2023-11-25T04:26:47;5.70;;;3.70;;
50631;SDS011;49583;45.590;-122.498;2023-11-25T04:28:59;4.10;;;3.40;;
50631;SDS011;49583;45.590;-122.498;2023-11-25T04:31:12;4.60;;;4.10;;
50631;SDS011;49583;45.590;-122.498;2023-11-25T04:33:25;4.10;;;3.60;;
50631;SDS011;49583;45.590;-122.498;2023-11-25T04:35:40;6.00;;;4.20;;
50631;SDS011;49583;45.590;-122.498;2023-11-25T04:37:53;6.30;;;4.20;;
50631;SDS011;49583;45.590;-122.498;2023-11-25T04:40:07;4.10;;;3.70;;
50631;SDS011;49583;45.590;-122.498;2023-11-25T04:42:23;5.90;;;3.70;;
50631;SDS011;49583;45.590;-122.498;2023-11-25T04:44:36;3.80;;;3.50;;
50631;SDS011;49583;45.590;-122.498;2023-11-25T04:46:49;4.20;;;3.80;;
50631;SDS011;49583;45.590;-122.498;2023-11-25T04:49:02;5.30;;;4.10;;
50631;SDS011;49583;45.590;-122.498;2023-11-25T04:51:15;4.30;;;3.40;;
50631;SDS011;49583;45.590;-122.498;2023-11-25T04:53:36;5.30;;;4.10;;
50631;SDS011;49583;45.590;-122.498;2023-11-25T04:55:49;6.40;;;3.90;;
50631;SDS011;49583;45.590;-122.498;2023-11-25T04:58:02;7.40;;;4.10;;
50631;SDS011;49583;45.590;-122.498;2023-11-25T05:00:15;6.60;;;4.80;;
50631;SDS011;49583;45.590;-122.498;2023-11-25T05:02:29;4.90;;;4.10;;
50631;SDS011;49583;45.590;-122.498;2023-11-25T05:04:42;7.30;;;4.60;;
50631;SDS011;49583;45.590;-122.498;2023-11-25T05:06:55;5.30;;;4.70;;
50631;SDS011;49583;45.590;-122.498;2023-11-25T05:09:08;5.90;;;5.10;;
50631;SDS011;49583;45.590;-122.498;2023-11-25T05:11:22;8.60;;;4.70;;
50631;SDS011;49583;45.590;-122.498;2023-11-25T05:13:35;9.70;;;5.20;;
50631;SDS011;49583;45.590;-122.498;2023-11-25T05:15:48;6.30;;;4.60;;
50631;SDS011;49583;45.590;-122.498;2023-11-25T05:18:01;5.80;;;4.70;;
50631;SDS011;49583;45.590;-122.498;2023-11-25T05:20:14;5.20;;;4.50;;
50631;SDS011;49583;45.590;-122.498;2023-11-25T05:22:27;5.40;;;4.80;;
50631;SDS011;49583;45.590;-122.498;2023-11-25T05:24:40;7.10;;;4.90;;
50631;SDS011;49583;45.590;-122.498;2023-11-25T05:26:54;4.70;;;4.00;;
50631;SDS011;49583;45.590;-122.498;2023-11-25T05:29:07;6.20;;;4.30;;
50631;SDS011;49583;45.590;-122.498;2023-11-25T05:31:20;6.70;;;4.70;;
50631;SDS011;49583;45.590;-122.498;2023-11-25T05:33:32;7.40;;;4.30;;
50631;SDS011;49583;45.590;-122.498;2023-11-25T05:35:45;5.80;;;4.60;;
50631;SDS011;49583;45.590;-122.498;2023-11-25T05:37:58;5.50;;;4.70;;
50631;SDS011;49583;45.590;-122.498;2023-11-25T05:40:13;7.20;;;5.20;;
50631;SDS011;49583;45.590;-122.498;2023-11-25T05:42:26;8.00;;;4.80;;
50631;SDS011;49583;45.590;-122.498;2023-11-25T05:44:38;5.50;;;5.00;;
50631;SDS011;49583;45.590;-122.498;2023-11-25T05:46:55;9.20;;;5.00;;
50631;SDS011;49583;45.590;-122.498;2023-11-25T05:49:08;6.10;;;4.80;;
50631;SDS011;49583;45.590;-122.498;2023-11-25T05:51:21;6.60;;;4.90;;
50631;SDS011;49583;45.590;-122.498;2023-11-25T05:53:41;9.20;;;5.90;;
50631;SDS011;49583;45.590;-122.498;2023-11-25T05:55:56;6.10;;;4.70;;
50631;SDS011;49583;45.590;-122.498;2023-11-25T05:58:09;8.90;;;5.00;;
50631;SDS011;49583;45.590;-122.498;2023-11-25T06:00:23;7.50;;;4.90;;
50631;SDS011;49583;45.590;-122.498;2023-11-25T06:02:37;9.50;;;4.80;;
50631;SDS011;49583;45.590;-122.498;2023-11-25T06:04:50;10.00;;;4.90;;
50631;SDS011;49583;45.590;-122.498;2023-11-25T06:07:03;6.50;;;4.70;;
50631;SDS011;49583;45.590;-122.498;2023-11-25T06:09:17;5.90;;;4.60;;
50631;SDS011;49583;45.590;-122.498;2023-11-25T06:11:30;7.70;;;5.00;;
50631;SDS011;49583;45.590;-122.498;2023-11-25T06:13:42;6.70;;;5.10;;
50631;SDS011;49583;45.590;-122.498;2023-11-25T06:15:55;7.50;;;4.40;;
50631;SDS011;49583;45.590;-122.498;2023-11-25T06:18:08;8.10;;;5.50;;
50631;SDS011;49583;45.590;-122.498;2023-11-25T06:20:22;7.90;;;5.30;;
50631;SDS011;49583;45.590;-122.498;2023-11-25T06:22:35;7.00;;;5.00;;
50631;SDS011;49583;45.590;-122.498;2023-11-25T06:24:51;10.10;;;6.10;;
50631;SDS011;49583;45.590;-122.498;2023-11-25T06:27:08;7.30;;;5.30;;
50631;SDS011;49583;45.590;-122.498;2023-11-25T06:29:21;10.30;;;5.60;;
50631;SDS011;49583;45.590;-122.498;2023-11-25T06:31:34;7.80;;;6.00;;
50631;SDS011;49583;45.590;-122.498;2023-11-25T06:33:48;9.20;;;6.30;;
50631;SDS011;49583;45.590;-122.498;2023-11-25T06:36:05;3.80;;;2.80;;
50631;SDS011;49583;45.590;-122.498;2023-11-25T06:38:19;5.00;;;3.10;;
50631;SDS011;49583;45.590;-122.498;2023-11-25T06:40:32;3.90;;;2.80;;
50631;SDS011;49583;45.590;-122.498;2023-11-25T06:42:46;2.60;;;2.10;;
50631;SDS011;49583;45.590;-122.498;2023-11-25T06:45:01;3.30;;;2.20;;
50631;SDS011;49583;45.590;-122.498;2023-11-25T06:47:14;2.10;;;1.90;;
50631;SDS011;49583;45.590;-122.498;2023-11-25T06:49:28;2.50;;;1.90;;
50631;SDS011;49583;45.590;-122.498;2023-11-25T06:51:41;2.80;;;2.20;;
50631;SDS011;49583;45.590;-122.498;2023-11-25T06:53:55;3.80;;;2.70;;
50631;SDS011;49583;45.590;-122.498;2023-11-25T06:56:11;2.80;;;2.10;;
50631;SDS011;49583;45.590;-122.498;2023-11-25T06:58:25;4.30;;;2.50;;
50631;SDS011;49583;45.590;-122.498;2023-11-25T07:00:41;3.90;;;2.70;;
50631;SDS011;49583;45.590;-122.498;2023-11-25T07:02:54;4.70;;;2.80;;
50631;SDS011;49583;45.590;-122.498;2023-11-25T07:05:07;5.00;;;3.20;;
50631;SDS011;49583;45.590;-122.498;2023-11-25T07:07:21;3.10;;;2.80;;
50631;SDS011;49583;45.590;-122.498;2023-11-25T07:09:33;3.20;;;2.90;;
50631;SDS011;49583;45.590;-122.498;2023-11-25T07:11:56;4.10;;;2.40;;
50631;SDS011;49583;45.590;-122.498;2023-11-25T07:14:10;5.10;;;3.20;;
50631;SDS011;49583;45.590;-122.498;2023-11-25T07:16:23;3.80;;;2.90;;
50631;SDS011;49583;45.590;-122.498;2023-11-25T07:18:36;3.60;;;3.30;;
50631;SDS011;49583;45.590;-122.498;2023-11-25T07:20:50;4.40;;;3.50;;
50631;SDS011;49583;45.590;-122.498;2023-11-25T07:23:04;7.70;;;3.80;;
50631;SDS011;49583;45.590;-122.498;2023-11-25T07:25:19;9.90;;;4.70;;
50631;SDS011;49583;45.590;-122.498;2023-11-25T07:27:35;7.70;;;5.70;;
50631;SDS011;49583;45.590;-122.498;2023-11-25T07:29:48;9.30;;;4.90;;
50631;SDS011;49583;45.590;-122.498;2023-11-25T07:32:02;7.70;;;5.90;;
50631;SDS011;49583;45.590;-122.498;2023-11-25T07:34:17;10.40;;;6.20;;
50631;SDS011;49583;45.590;-122.498;2023-11-25T07:36:31;4.20;;;3.50;;
50631;SDS011;49583;45.590;-122.498;2023-11-25T07:38:44;3.30;;;2.50;;
50631;SDS011;49583;45.590;-122.498;2023-11-25T07:40:57;6.70;;;3.80;;
50631;SDS011;49583;45.590;-122.498;2023-11-25T07:43:10;7.20;;;4.70;;
50631;SDS011;49583;45.590;-122.498;2023-11-25T07:45:23;9.90;;;4.50;;
50631;SDS011;49583;45.590;-122.498;2023-11-25T07:47:36;5.60;;;4.60;;
50631;SDS011;49583;45.590;-122.498;2023-11-25T07:49:49;11.50;;;5.70;;
50631;SDS011;49583;45.590;-122.498;2023-11-25T07:52:02;5.50;;;4.70;;
50631;SDS011;49583;45.590;-122.498;2023-11-25T07:54:16;8.90;;;4.40;;
50631;SDS011;49583;45.590;-122.498;2023-11-25T07:56:29;4.80;;;4.10;;
50631;SDS011;49583;45.590;-122.498;2023-11-25T07:58:44;6.00;;;4.30;;
50631;SDS011;49583;45.590;-122.498;2023-11-25T08:00:57;7.20;;;4.60;;
50631;SDS011;49583;45.590;-122.498;2023-11-25T08:03:10;8.40;;;5.40;;
50631;SDS011;49583;45.590;-122.498;2023-11-25T08:05:24;10.20;;;6.20;;
50631;SDS011;49583;45.590;-122.498;2023-11-25T08:07:39;7.80;;;6.60;;
50631;SDS011;49583;45.590;-122.498;2023-11-25T08:09:53;9.00;;;6.40;;
50631;SDS011;49583;45.590;-122.498;2023-11-25T08:12:07;10.60;;;6.80;;
50631;SDS011;49583;45.590;-122.498;2023-11-25T08:14:21;10.90;;;7.40;;
50631;SDS011;49583;45.590;-122.498;2023-11-25T08:16:34;7.80;;;6.90;;
50631;SDS011;49583;45.590;-122.498;2023-11-25T08:18:56;12.90;;;7.60;;
50631;SDS011;49583;45.590;-122.498;2023-11-25T08:21:09;7.20;;;6.50;;
50631;SDS011;49583;45.590;-122.498;2023-11-25T08:23:22;8.80;;;7.10;;
50631;SDS011;49583;45.590;-122.498;2023-11-25T08:25:35;9.20;;;6.90;;
50631;SDS011;49583;45.590;-122.498;2023-11-25T08:27:49;8.90;;;6.40;;
50631;SDS011;49583;45.590;-122.498;2023-11-25T08:30:02;12.80;;;6.60;;
50631;SDS011;49583;45.590;-122.498;2023-11-25T08:32:16;9.90;;;6.00;;
50631;SDS011;49583;45.590;-122.498;2023-11-25T08:34:29;8.30;;;6.10;;
50631;SDS011;49583;45.590;-122.498;2023-11-25T08:36:43;8.50;;;6.40;;
50631;SDS011;49583;45.590;-122.498;2023-11-25T08:39:05;7.90;;;6.90;;
50631;SDS011;49583;45.590;-122.498;2023-11-25T08:41:20;8.50;;;6.10;;
50631;SDS011;49583;45.590;-122.498;2023-11-25T08:43:33;8.20;;;6.80;;
50631;SDS011;49583;45.590;-122.498;2023-11-25T08:45:51;7.60;;;6.20;;
50631;SDS011;49583;45.590;-122.498;2023-11-25T08:48:04;7.70;;;6.10;;
50631;SDS011;49583;45.590;-122.498;2023-11-25T08:50:18;6.70;;;5.60;;
50631;SDS011;49583;45.590;-122.498;2023-11-25T08:52:31;8.40;;;5.50;;
50631;SDS011;49583;45.590;-122.498;2023-11-25T08:54:46;5.80;;;5.10;;
50631;SDS011;49583;45.590;-122.498;2023-11-25T08:57:00;7.00;;;6.10;;
50631;SDS011;49583;45.590;-122.498;2023-11-25T08:59:15;6.40;;;5.50;;
50631;SDS011;49583;45.590;-122.498;2023-11-25T09:01:29;6.30;;;5.70;;
50631;SDS011;49583;45.590;-122.498;2023-11-25T09:03:50;8.30;;;6.50;;
50631;SDS011;49583;45.590;-122.498;2023-11-25T09:06:03;6.80;;;5.90;;
50631;SDS011;49583;45.590;-122.498;2023-11-25T09:08:19;7.60;;;5.70;;
50631;SDS011;49583;45.590;-122.498;2023-11-25T09:10:32;9.50;;;6.30;;
50631;SDS011;49583;45.590;-122.498;2023-11-25T09:12:46;8.40;;;5.50;;
50631;SDS011;49583;45.590;-122.498;2023-11-25T09:15:00;7.00;;;5.70;;
50631;SDS011;49583;45.590;-122.498;2023-11-25T09:17:18;7.80;;;5.80;;
50631;SDS011;49583;45.590;-122.498;2023-11-25T09:19:31;9.10;;;6.00;;
50631;SDS011;49583;45.590;-122.498;2023-11-25T09:21:43;6.10;;;4.80;;
50631;SDS011;49583;45.590;-122.498;2023-11-25T09:23:57;5.60;;;5.00;;
50631;SDS011;49583;45.590;-122.498;2023-11-25T09:26:13;9.80;;;5.20;;
50631;SDS011;49583;45.590;-122.498;2023-11-25T09:28:32;5.60;;;5.00;;
50631;SDS011;49583;45.590;-122.498;2023-11-25T09:30:46;9.40;;;5.50;;
50631;SDS011;49583;45.590;-122.498;2023-11-25T09:32:59;6.20;;;5.60;;
50631;SDS011;49583;45.590;-122.498;2023-11-25T09:35:12;6.60;;;5.80;;
50631;SDS011;49583;45.590;-122.498;2023-11-25T09:37:25;7.30;;;6.00;;
50631;SDS011;49583;45.590;-122.498;2023-11-25T09:39:44;6.80;;;5.30;;
50631;SDS011;49583;45.590;-122.498;2023-11-25T09:41:56;6.90;;;5.80;;
50631;SDS011;49583;45.590;-122.498;2023-11-25T09:44:10;5.50;;;4.90;;
50631;SDS011;49583;45.590;-122.498;2023-11-25T09:46:23;6.90;;;6.00;;
50631;SDS011;49583;45.590;-122.498;2023-11-25T09:48:36;6.90;;;5.70;;
50631;SDS011;49583;45.590;-122.498;2023-11-25T09:50:59;7.40;;;5.40;;
50631;SDS011;49583;45.590;-122.498;2023-11-25T09:53:17;5.60;;;4.90;;
50631;SDS011;49583;45.590;-122.498;2023-11-25T09:55:38;9.20;;;5.80;;
50631;SDS011;49583;45.590;-122.498;2023-11-25T09:57:58;7.30;;;6.00;;
50631;SDS011;49583;45.590;-122.498;2023-11-25T10:00:15;6.90;;;6.20;;
50631;SDS011;49583;45.590;-122.498;2023-11-25T10:02:32;9.00;;;6.30;;
50631;SDS011;49583;45.590;-122.498;2023-11-25T10:04:46;8.10;;;6.40;;
50631;SDS011;49583;45.590;-122.498;2023-11-25T10:07:00;8.00;;;6.30;;
50631;SDS011;49583;45.590;-122.498;2023-11-25T10:09:13;8.90;;;6.40;;
50631;SDS011;49583;45.590;-122.498;2023-11-25T10:11:28;7.00;;;6.20;;
50631;SDS011;49583;45.590;-122.498;2023-11-25T10:13:43;6.20;;;5.30;;
50631;SDS011;49583;45.590;-122.498;2023-11-25T10:15:56;9.90;;;6.20;;
50631;SDS011;49583;45.590;-122.498;2023-11-25T10:18:13;6.60;;;5.90;;
50631;SDS011;49583;45.590;-122.498;2023-11-25T10:20:27;6.10;;;5.30;;
50631;SDS011;49583;45.590;-122.498;2023-11-25T10:22:46;9.10;;;6.40;;
50631;SDS011;49583;45.590;-122.498;2023-11-25T10:25:01;8.80;;;6.70;;
50631;SDS011;49583;45.590;-122.498;2023-11-25T10:27:17;7.90;;;5.80;;
50631;SDS011;49583;45.590;-122.498;2023-11-25T10:29:31;9.10;;;6.60;;
50631;SDS011;49583;45.590;-122.498;2023-11-25T10:31:53;7.30;;;6.60;;
50631;SDS011;49583;45.590;-122.498;2023-11-25T10:34:09;8.00;;;5.80;;
50631;SDS011;49583;45.590;-122.498;2023-11-25T10:36:32;10.30;;;5.40;;
50631;SDS011;49583;45.590;-122.498;2023-11-25T10:38:45;5.70;;;5.10;;
50631;SDS011;49583;45.590;-122.498;2023-11-25T10:41:02;7.90;;;6.20;;
50631;SDS011;49583;45.590;-122.498;2023-11-25T10:43:16;9.70;;;6.80;;
50631;SDS011;49583;45.590;-122.498;2023-11-25T10:45:30;8.70;;;6.70;;
50631;SDS011;49583;45.590;-122.498;2023-11-25T10:47:43;8.80;;;6.60;;
50631;SDS011;49583;45.590;-122.498;2023-11-25T10:49:57;8.00;;;6.30;;
50631;SDS011;49583;45.590;-122.498;2023-11-25T10:52:32;10.60;;;6.90;;
50631;SDS011;49583;45.590;-122.498;2023-11-25T10:54:46;6.40;;;5.70;;
50631;SDS011;49583;45.590;-122.498;2023-11-25T10:57:00;10.60;;;6.60;;
50631;SDS011;49583;45.590;-122.498;2023-11-25T10:59:17;7.80;;;6.60;;
50631;SDS011;49583;45.590;-122.498;2023-11-25T11:01:33;7.20;;;6.50;;
50631;SDS011;49583;45.590;-122.498;2023-11-25T11:03:53;9.10;;;6.10;;
50631;SDS011;49583;45.590;-122.498;2023-11-25T11:06:15;8.10;;;5.80;;
50631;SDS011;49583;45.590;-122.498;2023-11-25T11:08:32;6.60;;;5.20;;
50631;SDS011;49583;45.590;-122.498;2023-11-25T11:10:56;6.70;;;5.60;;
50631;SDS011;49583;45.590;-122.498;2023-11-25T11:13:11;5.40;;;4.80;;
50631;SDS011;49583;45.590;-122.498;2023-11-25T11:15:29;6.00;;;5.10;;
50631;SDS011;49583;45.590;-122.498;2023-11-25T11:17:47;5.60;;;4.80;;
50631;SDS011;49583;45.590;-122.498;2023-11-25T11:20:13;7.20;;;5.90;;
50631;SDS011;49583;45.590;-122.498;2023-11-25T11:22:30;6.50;;;5.50;;
50631;SDS011;49583;45.590;-122.498;2023-11-25T11:24:52;8.00;;;6.20;;
50631;SDS011;49583;45.590;-122.498;2023-11-25T11:27:24;6.20;;;5.40;;
50631;SDS011;49583;45.590;-122.498;2023-11-25T11:29:43;6.80;;;6.00;;
50631;SDS011;49583;45.590;-122.498;2023-11-25T11:32:04;7.80;;;5.40;;
50631;SDS011;49583;45.590;-122.498;2023-11-25T11:34:18;7.70;;;6.80;;
50631;SDS011;49583;45.590;-122.498;2023-11-25T11:36:31;8.00;;;5.80;;
50631;SDS011;49583;45.590;-122.498;2023-11-25T11:38:44;10.30;;;6.50;;
50631;SDS011;49583;45.590;-122.498;2023-11-25T11:41:00;6.70;;;5.60;;
50631;SDS011;49583;45.590;-122.498;2023-11-25T11:43:37;10.90;;;7.60;;
50631;SDS011;49583;45.590;-122.498;2023-11-25T11:48:49;11.50;;;7.60;;
50631;SDS011;49583;45.590;-122.498;2023-11-25T11:51:04;8.20;;;6.40;;
50631;SDS011;49583;45.590;-122.498;2023-11-25T11:53:22;9.20;;;6.00;;
50631;SDS011;49583;45.590;-122.498;2023-11-25T11:55:39;7.10;;;6.40;;
50631;SDS011;49583;45.590;-122.498;2023-11-25T12:00:24;6.30;;;5.80;;
50631;SDS011;49583;45.590;-122.498;2023-11-25T12:02:40;9.10;;;5.90;;
50631;SDS011;49583;45.590;-122.498;2023-11-25T12:04:57;7.30;;;6.00;;
50631;SDS011;49583;45.590;-122.498;2023-11-25T12:07:11;10.10;;;6.00;;
50631;SDS011;49583;45.590;-122.498;2023-11-25T12:09:28;7.80;;;6.20;;
50631;SDS011;49583;45.590;-122.498;2023-11-25T12:11:40;7.60;;;6.30;;
50631;SDS011;49583;45.590;-122.498;2023-11-25T12:13:53;9.20;;;6.40;;
50631;SDS011;49583;45.590;-122.498;2023-11-25T12:16:07;7.10;;;6.00;;
50631;SDS011;49583;45.590;-122.498;2023-11-25T12:18:20;8.60;;;6.60;;
50631;SDS011;49583;45.590;-122.498;2023-11-25T12:20:33;6.80;;;5.70;;
50631;SDS011;49583;45.590;-122.498;2023-11-25T12:22:50;7.80;;;6.20;;
50631;SDS011;49583;45.590;-122.498;2023-11-25T12:25:07;9.70;;;5.50;;
50631;SDS011;49583;45.590;-122.498;2023-11-25T12:27:21;5.90;;;5.30;;
50631;SDS011;49583;45.590;-122.498;2023-11-25T12:29:38;5.80;;;5.20;;
50631;SDS011;49583;45.590;-122.498;2023-11-25T12:31:50;5.80;;;5.20;;
50631;SDS011;49583;45.590;-122.498;2023-11-25T12:34:06;6.30;;;5.70;;
50631;SDS011;49583;45.590;-122.498;2023-11-25T12:36:22;6.10;;;5.50;;
50631;SDS011;49583;45.590;-122.498;2023-11-25T12:38:35;7.20;;;5.70;;
50631;SDS011;49583;45.590;-122.498;2023-11-25T12:40:51;7.70;;;5.10;;
50631;SDS011;49583;45.590;-122.498;2023-11-25T12:43:08;6.40;;;5.50;;
50631;SDS011;49583;45.590;-122.498;2023-11-25T12:45:33;9.70;;;5.40;;
50631;SDS011;49583;45.590;-122.498;2023-11-25T12:47:51;7.90;;;5.70;;
50631;SDS011;49583;45.590;-122.498;2023-11-25T12:50:07;5.80;;;5.30;;
50631;SDS011;49583;45.590;-122.498;2023-11-25T12:52:20;5.70;;;5.20;;
50631;SDS011;49583;45.590;-122.498;2023-11-25T12:54:45;6.00;;;5.10;;
50631;SDS011;49583;45.590;-122.498;2023-11-25T12:57:01;6.80;;;5.70;;
50631;SDS011;49583;45.590;-122.498;2023-11-25T12:59:14;6.80;;;5.50;;
50631;SDS011;49583;45.590;-122.498;2023-11-25T13:01:35;6.80;;;6.10;;